Time;durP1;ratioP1;P1;durP2;ratioP2;P2;SDS_P1;SDS_P2;PMS_P1;PMS_P2;Temp;Humidity;BMP_temperature;BMP_pressure;BME280_temperature;BME280_humidity;BME280_pressure;Samples;Min_cycle;Max_cycle;Signal;HPM_P1;HPM_P2
2021/01/20 00:01:26;;;;;;;5.65;3.17;;;5.90;99.90;;;;;;4947687;29;20039;-95
2021/01/20 00:03:56;;;;;;;5.75;3.00;;;5.90;99.90;;;;;;4954657;29;20055;-95
2021/01/20 00:06:22;;;;;;;7.25;3.25;;;5.90;99.90;;;;;;4953051;29;20031;-96
2021/01/20 00:08:49;;;;;;;4.82;2.95;;;5.90;99.90;;;;;;4940350;29;20035;-96
2021/01/20 00:11:15;;;;;;;6.28;3.55;;;5.80;99.90;;;;;;4950020;29;20058;-96
2021/01/20 00:13:41;;;;;;;6.13;2.45;;;5.50;99.90;;;;;;4955721;28;20063;-96
2021/01/20 00:16:08;;;;;;;4.90;2.47;;;5.80;99.90;;;;;;4918982;29;20029;-95
2021/01/20 00:18:39;;;;;;;4.38;2.50;;;5.50;99.90;;;;;;4928308;29;20074;-96
2021/01/20 00:47:47;;;;;;;6.65;3.22;;;5.40;99.90;;;;;;4999055;26;20031;-96
2021/01/20 00:50:16;;;;;;;5.43;2.35;;;5.20;99.90;;;;;;4983760;28;20019;-96
2021/01/20 00:52:43;;;;;;;7.60;2.75;;;5.30;99.90;;;;;;4999404;28;20050;-94
2021/01/20 00:55:12;;;;;;;6.63;2.63;;;5.20;99.90;;;;;;4978847;28;20059;-96
2021/01/20 00:57:40;;;;;;;5.45;2.83;;;5.30;99.90;;;;;;4973044;28;20027;-96
2021/01/20 01:00:11;;;;;;;7.13;3.10;;;5.30;99.90;;;;;;5168915;23;20043;-95
2021/01/20 01:05:24;;;;;;;8.93;3.58;;;5.20;99.90;;;;;;4981290;23;20038;-96
2021/01/20 01:07:52;;;;;;;6.15;3.55;;;5.10;99.90;;;;;;5553205;23;20078;-92
2021/01/20 01:10:19;;;;;;;7.93;3.33;;;5.00;99.90;;;;;;4944857;29;20023;-95
2021/01/20 01:12:45;;;;;;;6.68;3.60;;;5.40;99.90;;;;;;4934749;29;20037;-96
2021/01/20 01:15:11;;;;;;;3.53;2.60;;;5.10;99.90;;;;;;4931585;29;20708;-95
2021/01/20 01:17:38;;;;;;;4.72;2.70;;;5.10;99.90;;;;;;4915066;29;20036;-95
2021/01/20 01:20:07;;;;;;;6.05;3.10;;;5.30;99.90;;;;;;4897449;29;20032;-96
2021/01/20 01:22:33;;;;;;;6.55;2.97;;;5.10;99.90;;;;;;4923046;29;20024;-94
2021/01/20 01:24:59;;;;;;;5.72;2.72;;;5.20;99.90;;;;;;4949811;29;20042;-95
2021/01/20 01:27:25;;;;;;;3.90;2.45;;;5.20;99.90;;;;;;4936962;29;20036;-94
2021/01/20 01:29:52;;;;;;;7.65;3.78;;;5.20;99.90;;;;;;4931367;29;20032;-94
2021/01/20 01:32:18;;;;;;;6.10;3.42;;;5.30;99.90;;;;;;4932748;29;20056;-95
2021/01/20 01:34:48;;;;;;;5.32;3.10;;;5.40;99.90;;;;;;4949444;29;20533;-96
2021/01/20 01:37:23;;;;;;;7.18;3.00;;;5.20;99.90;;;;;;5232579;23;20059;-96
2021/01/20 01:39:50;;;;;;;4.07;2.80;;;5.60;99.90;;;;;;5033159;23;20047;-96
2021/01/20 01:42:28;;;;;;;5.38;2.88;;;5.70;99.90;;;;;;5250562;23;20103;-96
2021/01/20 01:44:57;;;;;;;7.78;3.00;;;5.80;99.90;;;;;;4954104;29;20063;-96
2021/01/20 01:47:42;;;;;;;3.95;2.70;;;5.90;99.90;;;;;;4947210;29;20114;-96
2021/01/20 01:50:09;;;;;;;4.53;2.40;;;5.90;99.90;;;;;;5176410;23;20078;-96
2021/01/20 01:52:36;;;;;;;5.63;2.85;;;6.00;99.90;;;;;;4950688;29;20030;-95
2021/01/20 01:55:05;;;;;;;5.43;3.50;;;6.00;99.90;;;;;;4953764;29;20031;-96
2021/01/20 01:57:40;;;;;;;7.60;3.50;;;6.00;99.90;;;;;;4958656;29;20023;-95
2021/01/20 02:00:09;;;;;;;7.72;2.92;;;6.30;99.90;;;;;;4966611;29;20043;-96
2021/01/20 02:02:36;;;;;;;4.57;3.05;;;6.10;99.90;;;;;;4968751;29;20075;-96
2021/01/20 02:05:03;;;;;;;5.22;2.45;;;6.20;99.90;;;;;;4979969;28;20126;-95
2021/01/20 02:07:39;;;;;;;8.55;3.25;;;6.20;99.90;;;;;;4963055;28;20051;-95
2021/01/20 02:10:22;;;;;;;3.60;2.90;;;6.10;99.90;;;;;;4962813;28;20046;-96
2021/01/20 02:16:27;;;;;;;;;;;;;;;;;;;;;
2021/01/20 02:19:16;;;;;;;6.53;2.85;;;5.60;99.90;;;;;;4978504;28;20066;-96
2021/01/20 02:24:40;;;;;;;;;;;;;;;;;;;;;
2021/01/20 02:27:22;;;;;;;6.13;3.40;;;6.30;99.90;;;;;;4980750;29;20007;-92
2021/01/20 02:30:09;;;;;;;5.75;2.65;;;6.30;99.90;;;;;;4979479;28;20050;-96
2021/01/20 02:32:44;;;;;;;6.22;3.28;;;6.40;99.90;;;;;;4952069;28;20008;-96
2021/01/20 02:35:24;;;;;;;8.73;3.22;;;6.50;99.90;;;;;;4938990;29;20055;-96
2021/01/20 02:57:27;;;;;;;5.60;2.70;;;6.60;99.90;;;;;;5400121;23;20073;-88
2021/01/20 03:00:29;;;;;;;;;;;;;;;;;;;;;
2021/01/20 03:03:01;;;;;;;6.55;2.90;;;6.80;99.90;;;;;;4980125;28;20289;-96
2021/01/20 03:05:28;;;;;;;4.72;2.78;;;6.80;99.90;;;;;;4960223;29;20036;-96
2021/01/20 03:07:56;;;;;;;5.38;2.67;;;6.80;99.90;;;;;;4949375;29;20016;-95
2021/01/20 03:10:26;;;;;;;5.15;3.28;;;6.80;99.90;;;;;;4965888;29;20032;-96
2021/01/20 03:12:54;;;;;;;5.43;2.72;;;6.70;99.90;;;;;;4965429;29;20108;-96
2021/01/20 03:15:28;;;;;;;7.85;2.80;;;7.30;99.90;;;;;;4964059;29;20016;-95
2021/01/20 03:17:54;;;;;;;4.18;2.70;;;6.90;99.90;;;;;;4944804;29;20437;-93
2021/01/20 03:20:22;;;;;;;4.55;3.25;;;6.70;99.90;;;;;;4960845;29;20059;-94
2021/01/20 03:22:48;;;;;;;4.18;2.75;;;6.40;99.90;;;;;;4927289;29;20413;-95
2021/01/20 03:25:14;;;;;;;4.70;2.90;;;6.60;99.90;;;;;;4938682;29;20027;-94
2021/01/20 03:27:39;;;;;;;4.22;2.60;;;6.90;99.90;;;;;;4911160;29;20474;-95
2021/01/20 03:30:06;;;;;;;6.07;3.13;;;6.40;99.90;;;;;;4910264;29;20059;-95
2021/01/20 03:32:32;;;;;;;4.60;2.70;;;6.60;99.90;;;;;;4921178;29;20101;-96
2021/01/20 03:35:01;;;;;;;5.35;2.97;;;6.90;99.90;;;;;;4937983;29;20220;-96
2021/01/20 03:37:29;;;;;;;7.18;3.33;;;6.80;99.90;;;;;;4923089;29;20035;-96
2021/01/20 03:39:55;;;;;;;4.43;2.90;;;6.40;99.90;;;;;;4938971;29;20024;-96
2021/01/20 03:42:21;;;;;;;7.53;3.67;;;6.40;99.90;;;;;;4916854;29;20044;-96
2021/01/20 03:44:51;;;;;;;4.97;2.85;;;5.40;99.90;;;;;;4912964;29;20115;-96
2021/01/20 03:47:17;;;;;;;5.90;2.57;;;6.00;99.90;;;;;;4915554;29;20028;-96
2021/01/20 03:49:46;;;;;;;5.18;2.70;;;6.40;99.90;;;;;;4932720;29;20043;-96
2021/01/20 03:52:12;;;;;;;6.45;3.42;;;6.40;99.90;;;;;;4932992;29;20039;-96
2021/01/20 03:54:47;;;;;;;7.03;3.22;;;6.40;99.90;;;;;;4955721;29;20035;-95
2021/01/20 03:57:13;;;;;;;4.45;2.70;;;6.20;99.90;;;;;;4980800;28;20027;-96
2021/01/20 03:59:39;;;;;;;7.55;3.20;;;6.50;99.90;;;;;;4964012;28;20058;-96
2021/01/20 04:02:08;;;;;;;7.00;4.43;;;6.50;99.90;;;;;;4942472;29;20028;-96
2021/01/20 04:04:33;;;;;;;4.90;3.58;;;6.50;99.90;;;;;;4942406;29;20034;-95
2021/01/20 04:07:05;;;;;;;5.53;3.30;;;6.50;99.90;;;;;;4942148;29;20060;-96
2021/01/20 04:09:31;;;;;;;6.60;2.85;;;6.40;99.90;;;;;;4938536;29;20019;-96
2021/01/20 04:12:03;;;;;;;5.00;3.15;;;6.40;99.90;;;;;;4922853;29;20090;-96
2021/01/20 04:14:29;;;;;;;;;;;6.40;99.90;;;;;;4929051;29;20137;-96
2021/01/20 04:16:58;;;;;;;7.18;2.90;;;6.20;99.90;;;;;;4918620;29;19922;-95
2021/01/20 04:19:23;;;;;;;5.03;2.83;;;6.40;99.90;;;;;;4898636;29;20105;-94
2021/01/20 04:21:49;;;;;;;6.07;2.90;;;6.40;99.90;;;;;;4929392;29;20036;-96
2021/01/20 04:24:16;;;;;;;5.32;3.05;;;6.50;99.90;;;;;;4923383;29;20028;-96
2021/01/20 04:26:43;;;;;;;4.20;3.15;;;6.50;99.90;;;;;;4906792;29;20051;-95
2021/01/20 04:29:11;;;;;;;5.90;3.10;;;6.30;99.90;;;;;;4905546;29;20037;-95
2021/01/20 04:31:39;;;;;;;5.47;2.78;;;6.70;99.90;;;;;;4896693;29;20112;-95
2021/01/20 04:34:06;;;;;;;5.68;3.53;;;6.70;99.90;;;;;;4942038;29;20028;-96
2021/01/20 04:36:33;;;;;;;5.22;2.80;;;6.80;99.90;;;;;;4961201;29;20023;-93
2021/01/20 04:38:59;;;;;;;5.40;3.35;;;6.80;99.90;;;;;;4939485;29;20043;-93
2021/01/20 04:41:25;;;;;;;6.05;3.20;;;6.80;99.90;;;;;;4903586;29;20141;-95
2021/01/20 04:43:53;;;;;;;6.90;3.58;;;6.80;99.90;;;;;;4888164;29;20041;-95
2021/01/20 04:46:19;;;;;;;7.93;3.10;;;6.90;99.90;;;;;;4890864;29;20039;-95
2021/01/20 04:48:49;;;;;;;5.25;3.25;;;6.90;99.90;;;;;;4912171;29;20036;-92
2021/01/20 04:51:19;;;;;;;4.47;2.75;;;7.00;99.90;;;;;;4882146;29;20047;-93
2021/01/20 04:53:51;;;;;;;4.60;2.90;;;7.00;99.90;;;;;;4889002;29;20073;-92
2021/01/20 04:56:18;;;;;;;5.85;3.33;;;7.10;99.90;;;;;;4902987;29;20025;-92
2021/01/20 04:58:45;;;;;;;9.43;4.45;;;7.00;99.90;;;;;;4888968;29;20099;-91
2021/01/20 05:01:12;;;;;;;7.60;3.53;;;7.10;99.90;;;;;;4903291;29;20043;-95
2021/01/20 05:03:42;;;;;;;5.05;2.70;;;7.10;99.90;;;;;;4902170;29;20420;-94
2021/01/20 05:06:11;;;;;;;4.85;2.83;;;7.10;99.90;;;;;;4885786;29;20112;-94
2021/01/20 05:08:43;;;;;;;7.30;2.80;;;7.10;99.90;;;;;;4901707;29;20068;-94
2021/01/20 05:11:09;;;;;;;6.18;3.60;;;7.10;99.90;;;;;;4885602;29;20119;-94
2021/01/20 05:13:38;;;;;;;6.65;3.13;;;7.20;99.90;;;;;;4887807;29;20681;-93
2021/01/20 05:16:06;;;;;;;6.97;3.83;;;7.10;99.90;;;;;;4891613;29;20063;-93
2021/01/20 05:18:47;;;;;;;3.10;2.80;;;7.10;99.90;;;;;;4887136;29;20063;-94
2021/01/20 05:21:19;;;;;;;5.43;4.00;;;7.00;99.90;;;;;;4931785;29;20027;-94
2021/01/20 05:23:45;;;;;;;6.18;3.38;;;7.40;99.90;;;;;;4956984;29;20244;-95
2021/01/20 05:26:11;;;;;;;6.60;3.42;;;7.00;99.90;;;;;;4957125;29;20028;-96
2021/01/20 05:28:38;;;;;;;4.60;2.63;;;7.00;99.90;;;;;;4960528;29;20020;-96
2021/01/20 05:31:04;;;;;;;6.55;3.28;;;7.00;99.90;;;;;;4959899;29;20051;-93
2021/01/20 05:33:40;;;;;;;6.95;3.22;;;6.90;99.90;;;;;;4958214;29;20036;-92
2021/01/20 05:36:11;;;;;;;7.35;3.08;;;6.90;99.90;;;;;;4938290;29;20023;-94
2021/01/20 05:38:46;;;;;;;6.75;3.13;;;6.90;99.90;;;;;;4944583;29;20115;-92
2021/01/20 05:41:28;;;;;;;6.40;3.80;;;6.90;99.90;;;;;;4941288;29;20023;-92
2021/01/20 05:44:11;;;;;;;5.53;4.15;;;6.90;99.90;;;;;;4925772;29;20103;-93
2021/01/20 05:46:38;;;;;;;5.38;3.50;;;6.80;99.90;;;;;;4916067;29;20032;-95
2021/01/20 05:49:05;;;;;;;8.52;3.42;;;6.80;99.90;;;;;;4934214;29;20027;-96
2021/01/20 05:51:39;;;;;;;8.45;3.10;;;6.70;99.90;;;;;;4948594;29;20331;-96
2021/01/20 05:54:05;;;;;;;5.13;3.58;;;6.70;99.90;;;;;;4944344;29;20051;-95
2021/01/20 05:56:31;;;;;;;8.27;3.85;;;6.60;99.90;;;;;;4943593;29;20039;-93
2021/01/20 05:58:58;;;;;;;8.85;3.60;;;6.70;99.90;;;;;;4894847;29;1601896;-94
2021/01/20 06:01:28;;;;;;;5.70;3.03;;;6.80;99.90;;;;;;4959337;29;20039;-96
2021/01/20 06:03:58;;;;;;;4.75;3.75;;;6.70;99.90;;;;;;4959201;29;20036;-95
2021/01/20 06:06:29;;;;;;;5.95;3.65;;;6.80;99.90;;;;;;4930926;29;20032;-94
2021/01/20 06:08:57;;;;;;;7.05;4.20;;;6.80;99.90;;;;;;4948534;29;20120;-95
2021/01/20 06:11:22;;;;;;;5.75;2.97;;;6.80;99.90;;;;;;4930761;29;20038;-96
2021/01/20 06:13:53;;;;;;;6.38;3.08;;;6.80;99.90;;;;;;4965832;29;20031;-95
2021/01/20 06:16:39;;;;;;;4.63;2.92;;;6.80;99.90;;;;;;4949099;29;20043;-96
2021/01/20 06:19:10;;;;;;;14.10;4.78;;;6.80;99.90;;;;;;4937618;29;20421;-94
2021/01/20 06:21:59;;;;;;;5.03;3.33;;;7.10;99.90;;;;;;4959119;28;20107;-93
2021/01/20 06:24:44;;;;;;;5.68;3.00;;;6.90;99.90;;;;;;4962168;29;20042;-93
2021/01/20 06:27:26;;;;;;;5.18;2.90;;;6.90;99.90;;;;;;4958075;29;20031;-93
2021/01/20 06:30:09;;;;;;;4.97;2.58;;;6.90;99.90;;;;;;4973999;29;20027;-95
2021/01/20 06:32:43;;;;;;;5.85;2.97;;;6.90;99.90;;;;;;4976969;28;20058;-95
2021/01/20 06:35:10;;;;;;;4.75;2.80;;;6.90;99.90;;;;;;4978850;28;20027;-95
2021/01/20 06:37:49;;;;;;;5.40;3.03;;;7.00;99.90;;;;;;4962668;28;20030;-96
2021/01/20 06:40:21;;;;;;;5.70;2.42;;;6.90;99.90;;;;;;4962639;28;20027;-95
2021/01/20 06:42:50;;;;;;;5.20;2.85;;;7.10;99.90;;;;;;4936589;29;20024;-95
2021/01/20 06:45:26;;;;;;;5.35;3.35;;;7.20;99.90;;;;;;4937370;29;20043;-95
2021/01/20 06:48:04;;;;;;;5.45;3.17;;;7.10;99.90;;;;;;4923862;29;20040;-96
2021/01/20 06:50:54;;;;;;;4.00;2.80;;;7.10;99.90;;;;;;4940062;29;20100;-96
2021/01/20 06:53:25;;;;;;;4.28;3.03;;;7.20;99.90;;;;;;4924032;29;20028;-96
2021/01/20 06:55:51;;;;;;;5.32;2.58;;;7.30;99.90;;;;;;4923072;29;20052;-95
2021/01/20 06:58:18;;;;;;;8.23;2.80;;;7.50;99.90;;;;;;4923547;29;20056;-96
2021/01/20 07:03:15;;;;;;;;;;;7.40;99.90;;;;;;4977716;28;20047;-95
2021/01/20 07:05:45;;;;;;;3.85;2.95;;;7.40;99.90;;;;;;4962503;29;19905;-95
2021/01/20 07:08:12;;;;;;;4.72;2.60;;;7.40;99.90;;;;;;4977292;29;20054;-96
2021/01/20 07:14:00;;;;;;;5.25;3.28;;;7.50;99.90;;;;;;5536603;23;20035;-96
2021/01/20 07:16:28;;;;;;;4.65;2.40;;;7.50;99.90;;;;;;4987423;23;20040;-95
2021/01/20 07:18:55;;;;;;;3.95;2.47;;;7.50;99.90;;;;;;4939201;29;20087;-94
2021/01/20 07:21:21;;;;;;;5.75;3.03;;;7.60;99.90;;;;;;4915706;29;20017;-95
2021/01/20 07:23:50;;;;;;;4.32;2.60;;;7.60;99.90;;;;;;5099093;23;20049;-95
2021/01/20 07:28:52;;;;;;;4.65;1.92;;;7.70;99.90;;;;;;4939643;29;20096;-94
2021/01/20 07:31:18;;;;;;;4.10;2.40;;;7.40;99.90;;;;;;4932742;29;20063;-94
2021/01/20 07:33:52;;;;;;;3.25;2.13;;;7.70;99.90;;;;;;5030512;23;20142;-93
2021/01/20 07:36:20;;;;;;;3.78;2.40;;;7.70;99.90;;;;;;4957711;28;20050;-94
2021/01/20 07:38:48;;;;;;;6.05;2.97;;;7.90;99.90;;;;;;4954713;29;20042;-94
2021/01/20 07:41:26;;;;;;;6.25;3.92;;;7.40;99.90;;;;;;4922606;29;20357;-95
2021/01/20 07:44:07;;;;;;;6.88;2.88;;;7.30;99.90;;;;;;4931723;29;20481;-95
2021/01/20 07:46:36;;;;;;;9.05;2.40;;;7.80;99.90;;;;;;4945843;29;20031;-95
2021/01/20 07:49:30;;;;;;;19.05;5.07;;;7.80;99.90;;;;;;4956266;29;20016;-96
2021/01/20 07:52:24;;;;;;;8.80;2.80;;;7.80;99.90;;;;;;4979345;29;20023;-95
2021/01/20 07:54:52;;;;;;;6.82;2.80;;;7.80;99.90;;;;;;5231354;23;20036;-96
2021/01/20 07:57:24;;;;;;;5.38;2.60;;;7.80;99.90;;;;;;4945344;29;20032;-96
2021/01/20 08:00:02;;;;;;;8.15;3.00;;;7.90;99.90;;;;;;4949955;29;20048;-94
2021/01/20 08:02:31;;;;;;;4.90;2.53;;;7.90;99.90;;;;;;4935151;29;20107;-93
2021/01/20 08:05:01;;;;;;;4.05;2.92;;;7.90;99.90;;;;;;4934947;29;20193;-93
2021/01/20 08:07:26;;;;;;;6.22;2.85;;;7.90;99.90;;;;;;4949125;29;20059;-95
2021/01/20 08:09:52;;;;;;;9.55;2.42;;;7.90;99.90;;;;;;4921134;29;20072;-95
2021/01/20 08:12:28;;;;;;;4.25;2.40;;;7.90;99.90;;;;;;4947180;29;20032;-95
2021/01/20 08:14:54;;;;;;;4.07;2.53;;;7.90;99.90;;;;;;4926638;29;20028;-93
2021/01/20 08:17:21;;;;;;;4.93;2.75;;;7.90;99.90;;;;;;4949122;29;20035;-93
2021/01/20 08:19:54;;;;;;;6.70;2.80;;;7.90;99.90;;;;;;4937976;29;20032;-94
2021/01/20 08:22:28;;;;;;;5.18;3.30;;;7.90;99.90;;;;;;4945845;29;20027;-94
2021/01/20 08:33:06;;;;;;;3.78;2.50;;;7.90;99.90;;;;;;3255057;23;20272;-93
2021/01/20 08:36:12;;;;;;;8.02;4.40;;;7.90;99.90;;;;;;4979486;28;20031;-92
2021/01/20 08:41:39;;;;;;;4.43;2.78;;;7.80;99.90;;;;;;4960566;29;20036;-93
2021/01/20 08:44:15;;;;;;;4.38;3.15;;;7.80;99.90;;;;;;5394654;23;20052;-94
2021/01/20 08:46:53;;;;;;;9.68;3.13;;;7.80;99.90;;;;;;4938270;29;20032;-91
2021/01/20 08:49:20;;;;;;;6.35;2.85;;;7.90;99.90;;;;;;4910291;29;20035;-94
2021/01/20 08:51:58;;;;;;;3.58;2.53;;;8.10;99.90;;;;;;4903956;29;20025;-90
2021/01/20 08:54:26;;;;;;;9.43;4.60;;;7.40;99.90;;;;;;4888607;29;20036;-79
2021/01/20 08:57:12;;;;;;;12.23;4.32;;;7.90;99.90;;;;;;4902006;29;20103;-80
2021/01/20 09:00:30;;;;;;;5.38;2.90;;;8.00;99.90;;;;;;4911870;29;20040;-83
2021/01/20 09:03:14;;;;;;;5.55;3.33;;;8.20;99.90;;;;;;4824917;29;20036;-90
2021/01/20 09:05:46;;;;;;;5.05;3.33;;;8.10;99.90;;;;;;4928421;29;20054;-89
2021/01/20 09:08:16;;;;;;;5.10;2.90;;;8.10;99.90;;;;;;4927809;29;20034;-89
2021/01/20 09:10:49;;;;;;;7.18;3.15;;;8.10;99.90;;;;;;4913299;29;20079;-93
2021/01/20 09:13:22;;;;;;;6.38;3.20;;;8.10;99.90;;;;;;4909248;29;20135;-89
2021/01/20 09:15:58;;;;;;;7.05;3.50;;;8.20;99.90;;;;;;4876885;29;20047;-91
2021/01/20 09:18:29;;;;;;;5.65;2.83;;;8.20;99.90;;;;;;4930223;29;20040;-90
2021/01/20 09:20:55;;;;;;;6.13;3.38;;;8.20;99.90;;;;;;4923654;29;20028;-89
2021/01/20 09:23:27;;;;;;;5.40;2.97;;;8.20;99.90;;;;;;4923916;29;20068;-91
2021/01/20 09:25:58;;;;;;;4.75;2.88;;;8.20;99.90;;;;;;4924254;29;20047;-90
2021/01/20 09:28:36;;;;;;;5.93;3.22;;;8.20;99.90;;;;;;4909742;29;20108;-88
2021/01/20 09:31:24;;;;;;;5.88;2.83;;;8.30;99.90;;;;;;4914628;29;20036;-89
2021/01/20 09:33:53;;;;;;;5.15;3.10;;;8.30;99.90;;;;;;4914118;29;20120;-89
2021/01/20 11:00:53;;;;;;;4.38;2.78;;;9.50;99.90;;;;;;5602837;23;20055;-95
2021/01/20 11:03:20;;;;;;;7.30;3.60;;;9.40;99.90;;;;;;4934783;29;20063;-93
2021/01/20 11:05:49;;;;;;;5.88;3.38;;;9.50;99.90;;;;;;4953119;28;20054;-94
2021/01/20 11:08:15;;;;;;;4.55;3.00;;;9.30;99.90;;;;;;4957928;28;20135;-90
2021/01/20 11:10:42;;;;;;;6.00;3.42;;;9.50;99.90;;;;;;4946700;29;20023;-90
2021/01/20 11:13:12;;;;;;;6.63;3.08;;;9.50;99.90;;;;;;4940187;29;20055;-94
2021/01/20 11:15:47;;;;;;;9.75;2.80;;;9.50;99.90;;;;;;4954769;29;20032;-90
2021/01/20 11:18:17;;;;;;;3.67;3.00;;;9.60;99.90;;;;;;4944799;29;20007;-92
2021/01/20 11:20:59;;;;;;;10.25;3.72;;;9.60;99.90;;;;;;4946302;29;20031;-92
2021/01/20 11:23:35;;;;;;;8.95;4.03;;;9.60;99.90;;;;;;4958128;29;20027;-91
2021/01/20 11:26:16;;;;;;;6.80;3.35;;;9.30;99.90;;;;;;4962054;29;20066;-92
2021/01/20 11:28:56;;;;;;;5.45;3.42;;;9.80;99.90;;;;;;4968446;29;20034;-91
2021/01/20 11:31:27;;;;;;;6.53;3.55;;;9.80;99.90;;;;;;4928261;29;20378;-91
2021/01/20 11:33:54;;;;;;;5.80;2.67;;;9.80;99.90;;;;;;5032723;23;20067;-92
2021/01/20 11:36:20;;;;;;;6.38;2.97;;;9.90;99.90;;;;;;4958074;29;20028;-93
2021/01/20 11:38:46;;;;;;;5.40;3.33;;;9.90;99.90;;;;;;4941990;29;20031;-92
2021/01/20 11:41:13;;;;;;;3.55;2.47;;;9.10;99.90;;;;;;5072454;23;20035;-89
2021/01/20 11:43:41;;;;;;;4.57;2.63;;;10.20;99.90;;;;;;4956688;28;20040;-90
2021/01/20 11:46:51;;;;;;;6.72;3.55;;;10.10;99.90;;;;;;4951017;29;20055;-91
2021/01/20 11:49:35;;;;;;;6.13;3.10;;;10.10;99.90;;;;;;4938264;29;20024;-94
2021/01/20 11:52:07;;;;;;;5.57;3.63;;;9.90;99.90;;;;;;5173336;23;20039;-91
2021/01/20 11:54:34;;;;;;;5.88;3.45;;;9.80;99.90;;;;;;4932037;29;20035;-89
2021/01/20 11:57:41;;;;;;;6.68;3.35;;;9.80;99.90;;;;;;5000882;23;20632;-90
2021/01/20 12:00:11;;;;;;;5.88;3.78;;;9.80;99.90;;;;;;4955171;28;20211;-93
2021/01/20 12:02:40;;;;;;;5.60;3.70;;;9.70;99.90;;;;;;4953949;29;20027;-93
2021/01/20 12:05:08;;;;;;;7.97;4.25;;;9.70;99.90;;;;;;4917610;29;20043;-92
2021/01/20 12:11:03;;;;;;;12.18;3.75;;;9.70;99.90;;;;;;4939986;29;20095;-93
2021/01/20 12:16:32;;;;;;;5.32;3.47;;;9.70;99.90;;;;;;5247051;23;20044;-92
2021/01/20 12:19:13;;;;;;;8.70;3.80;;;9.50;99.90;;;;;;4960080;29;20113;-93
2021/01/20 12:27:41;;;;;;;7.25;3.60;;;9.40;99.90;;;;;;4998343;23;20064;-92
2021/01/20 12:30:15;;;;;;;7.82;4.28;;;9.50;99.90;;;;;;4940128;29;20047;-94
2021/01/20 12:32:41;;;;;;;7.18;3.65;;;9.40;99.90;;;;;;4961187;29;20077;-92
2021/01/20 12:35:55;;;;;;;13.65;3.50;;;9.40;99.90;;;;;;4918469;29;20039;-92
2021/01/20 12:38:34;;;;;;;8.38;3.30;;;9.40;99.90;;;;;;4937303;29;20043;-95
2021/01/20 12:40:59;;;;;;;5.78;3.20;;;9.50;99.90;;;;;;4936286;29;20121;-91
2021/01/20 12:47:00;;;;;;;11.73;5.00;;;9.50;99.90;;;;;;4937706;29;20092;-91
2021/01/20 12:52:02;;;;;;;9.75;5.38;;;9.50;99.90;;;;;;4969524;23;20059;-94
2021/01/20 12:54:30;;;;;;;10.57;6.28;;;9.30;99.90;;;;;;4958472;29;20031;-92
2021/01/20 12:57:00;;;;;;;9.93;5.22;;;9.60;99.90;;;;;;5021289;23;20210;-91
2021/01/20 12:59:30;;;;;;;9.63;5.00;;;9.60;99.90;;;;;;4954682;29;20032;-92
2021/01/20 13:01:56;;;;;;;10.57;4.88;;;9.20;99.90;;;;;;4934965;29;20019;-93
2021/01/20 13:04:22;;;;;;;10.00;5.22;;;9.60;99.90;;;;;;4937086;29;20031;-91
2021/01/20 13:06:52;;;;;;;8.82;5.20;;;9.50;99.90;;;;;;4953213;23;21594;-93
2021/01/20 13:09:35;;;;;;;10.05;5.63;;;9.40;99.90;;;;;;4954860;29;20043;-95
2021/01/20 13:12:01;;;;;;;7.45;4.57;;;9.30;99.90;;;;;;4952896;29;20031;-90
2021/01/20 13:14:47;;;;;;;11.60;6.25;;;9.20;99.90;;;;;;4928831;29;20044;-92
2021/01/20 13:17:14;;;;;;;8.35;4.55;;;9.20;99.90;;;;;;4962769;28;20020;-92
2021/01/20 13:19:40;;;;;;;9.23;4.00;;;9.20;99.90;;;;;;4901738;29;20073;-91
2021/01/20 13:22:08;;;;;;;9.63;4.30;;;9.20;99.90;;;;;;4899513;29;20091;-91
2021/01/20 13:24:34;;;;;;;5.93;3.78;;;9.10;99.90;;;;;;4909098;29;20037;-91
2021/01/20 13:27:00;;;;;;;6.47;3.63;;;9.10;99.90;;;;;;4905292;29;20035;-89
2021/01/20 13:29:41;;;;;;;4.53;3.15;;;9.10;99.90;;;;;;4905099;29;20060;-93
2021/01/20 13:32:29;;;;;;;7.57;3.53;;;9.00;99.90;;;;;;4890790;29;20493;-90
2021/01/20 13:35:00;;;;;;;8.82;3.85;;;9.00;99.90;;;;;;4884797;29;20041;-91
2021/01/20 13:41:12;;;;;;;9.85;4.45;;;9.00;99.90;;;;;;4910474;29;20047;-92
2021/01/20 13:43:43;;;;;;;5.78;3.45;;;9.10;99.90;;;;;;4897833;29;20040;-90
2021/01/20 13:46:10;;;;;;;7.60;3.30;;;9.10;99.90;;;;;;4911215;29;20032;-92
2021/01/20 13:48:36;;;;;;;7.65;3.72;;;8.90;99.90;;;;;;4903766;29;20032;-92
2021/01/20 13:51:02;;;;;;;6.55;3.70;;;9.10;99.90;;;;;;4925775;29;20048;-90
2021/01/20 13:53:28;;;;;;;6.40;3.78;;;9.10;99.90;;;;;;4936576;29;20100;-91
2021/01/20 13:56:01;;;;;;;5.30;3.60;;;9.10;99.90;;;;;;4953540;29;20012;-89
2021/01/20 13:58:27;;;;;;;7.85;3.53;;;9.00;99.90;;;;;;4928560;29;20035;-93
2021/01/20 14:00:53;;;;;;;6.53;3.30;;;9.00;99.90;;;;;;4943189;29;20040;-94
2021/01/20 14:03:30;;;;;;;11.07;4.43;;;9.00;99.90;;;;;;4939412;29;20066;-95
2021/01/20 14:06:16;;;;;;;11.98;3.92;;;9.00;99.90;;;;;;4936716;29;20034;-91
2021/01/20 14:08:41;;;;;;;13.52;4.05;;;9.00;99.90;;;;;;4950372;29;20036;-91
2021/01/20 14:11:31;;;;;;;6.75;3.50;;;8.90;99.90;;;;;;4923666;29;20044;-95
2021/01/20 14:14:03;;;;;;;7.50;4.22;;;8.90;99.90;;;;;;5179211;23;20087;-93
2021/01/20 14:16:30;;;;;;;5.60;3.58;;;8.90;99.90;;;;;;4931886;29;20016;-94
2021/01/20 14:18:57;;;;;;;8.20;4.28;;;9.00;99.90;;;;;;4938994;23;20067;-94
2021/01/20 14:21:27;;;;;;;8.35;3.47;;;9.00;99.90;;;;;;4917564;29;20028;-93
2021/01/20 14:24:19;;;;;;;11.10;4.63;;;9.10;99.90;;;;;;4897358;29;20021;-94
2021/01/20 14:26:49;;;;;;;6.72;3.58;;;9.10;99.90;;;;;;4888203;29;20041;-94
2021/01/20 14:29:17;;;;;;;7.18;3.83;;;9.10;99.90;;;;;;4894201;29;20038;-92
2021/01/20 14:31:51;;;;;;;8.68;3.95;;;9.10;99.90;;;;;;4893092;29;20032;-93
2021/01/20 14:34:22;;;;;;;7.38;3.85;;;8.70;99.90;;;;;;4904204;29;20039;-93
2021/01/20 14:40:17;;;;;;;5.82;3.10;;;9.20;99.90;;;;;;4825393;29;20049;-95
2021/01/20 14:43:53;;;;;;;9.15;3.92;;;9.30;99.90;;;;;;4808681;29;20059;-94
2021/01/20 14:47:03;;;;;;;10.27;4.07;;;9.30;99.90;;;;;;4761327;30;20461;-92
2021/01/20 14:49:32;;;;;;;7.20;3.50;;;9.20;99.90;;;;;;4771051;30;20079;-91
2021/01/20 14:52:03;;;;;;;10.68;5.03;;;9.20;99.90;;;;;;4812160;29;20135;-90
2021/01/20 14:55:08;;;;;;;6.03;3.58;;;9.10;99.90;;;;;;4819872;29;20038;-89
2021/01/20 14:57:52;;;;;;;7.30;4.28;;;9.20;99.90;;;;;;4832811;29;20041;-91
2021/01/20 15:00:27;;;;;;;10.15;4.13;;;9.20;99.90;;;;;;4800754;29;20047;-91
2021/01/20 15:02:59;;;;;;;7.05;4.00;;;9.20;99.90;;;;;;4785522;30;20047;-92
2021/01/20 15:05:50;;;;;;;7.55;3.97;;;9.20;99.90;;;;;;4818200;29;20047;-92
2021/01/20 15:08:25;;;;;;;6.50;3.63;;;9.20;99.90;;;;;;4836590;29;20047;-94
2021/01/20 15:11:03;;;;;;;4.93;3.20;;;9.20;99.90;;;;;;4806720;29;20050;-93
2021/01/20 15:20:30;;;;;;;6.85;3.50;;;9.20;99.90;;;;;;5351264;23;20051;-92
2021/01/20 15:22:58;;;;;;;6.28;3.50;;;9.20;99.90;;;;;;4944998;29;20020;-93
2021/01/20 15:34:15;;;;;;;8.65;4.07;;;9.20;99.90;;;;;;5562005;23;20055;-92
2021/01/20 15:36:49;;;;;;;8.82;3.75;;;9.20;99.90;;;;;;4934933;29;20043;-95
2021/01/20 15:39:50;;;;;;;7.82;4.25;;;9.20;99.90;;;;;;4912901;29;20064;-96
2021/01/20 15:42:17;;;;;;;6.40;3.55;;;9.20;99.90;;;;;;4925110;29;20028;-94
2021/01/20 15:44:47;;;;;;;15.20;4.78;;;9.20;99.90;;;;;;4915624;29;20060;-94
2021/01/20 15:47:39;;;;;;;7.30;3.55;;;9.20;99.90;;;;;;4919554;29;20032;-93
2021/01/20 15:50:22;;;;;;;8.07;3.80;;;9.30;99.90;;;;;;4976962;23;20069;-90
2021/01/20 15:53:19;;;;;;;8.18;3.72;;;9.20;99.90;;;;;;4978887;28;20016;-91
2021/01/20 15:55:46;;;;;;;8.23;4.07;;;9.10;99.90;;;;;;4958256;28;20112;-91
2021/01/20 15:58:12;;;;;;;6.55;3.45;;;9.20;99.90;;;;;;4975473;28;20016;-91
2021/01/20 16:00:39;;;;;;;5.43;3.60;;;9.10;99.90;;;;;;4967951;29;20061;-92
2021/01/20 16:03:05;;;;;;;7.60;3.63;;;9.10;99.90;;;;;;4942903;29;20028;-92
2021/01/20 16:05:31;;;;;;;5.78;3.70;;;9.00;99.90;;;;;;4955430;29;20023;-92
2021/01/20 16:07:57;;;;;;;8.65;3.60;;;9.00;99.90;;;;;;4979039;29;20038;-92
2021/01/20 16:10:26;;;;;;;8.55;4.10;;;9.00;99.90;;;;;;4979215;29;20019;-90
2021/01/20 16:12:56;;;;;;;5.30;3.78;;;8.50;99.90;;;;;;4954670;28;20023;-92
2021/01/20 16:15:25;;;;;;;11.02;4.75;;;9.00;99.90;;;;;;4958736;29;20039;-91
2021/01/20 16:17:54;;;;;;;6.97;3.95;;;9.00;99.90;;;;;;4947078;28;20018;-92
2021/01/20 16:20:28;;;;;;;7.07;4.15;;;9.00;99.90;;;;;;4952442;29;20031;-91
2021/01/20 16:23:01;;;;;;;5.38;3.65;;;9.00;99.90;;;;;;4964762;29;20047;-91
2021/01/20 16:25:32;;;;;;;9.82;3.85;;;9.00;99.90;;;;;;4947353;29;20027;-90
2021/01/20 16:27:58;;;;;;;5.95;3.97;;;8.50;99.90;;;;;;4942832;28;20019;-91
2021/01/20 16:30:25;;;;;;;5.05;3.15;;;9.00;99.90;;;;;;4938964;29;20028;-91
2021/01/20 16:33:03;;;;;;;10.27;4.28;;;9.00;99.90;;;;;;4939711;28;20031;-91
2021/01/20 16:35:33;;;;;;;9.93;4.80;;;9.10;99.90;;;;;;4942443;29;20050;-92
2021/01/20 16:37:59;;;;;;;12.70;4.13;;;8.70;99.90;;;;;;4925962;29;20593;-89
2021/01/20 16:40:43;;;;;;;6.93;3.40;;;8.70;99.90;;;;;;4932754;29;20043;-90
2021/01/20 16:43:30;;;;;;;9.20;3.35;;;9.10;99.90;;;;;;4955668;29;20024;-90
2021/01/20 16:46:21;;;;;;;8.05;3.80;;;9.20;99.90;;;;;;4956964;29;20040;-92
2021/01/20 16:49:16;;;;;;;;;;;;;;;;;;;;;